• Join FlightAware (Why Join?)
  • Login
  • US Flag 
05:05AM EST


 

Airport Tracker/Info


-or-


 

Live Flight TrackerFlight Track Log ✈ N978PC ✈ 08-May-2013 ✈ KTEB - KMSN

Flight Track Log - Related Links

Times and Time Zones

All times are in EDT time to prevent confusion due to time zone crossing. See the N978PC flight status page for this flight to view local times or setup timezone preferences in your user account.

Time Position Orientation Groundspeed Altitude Reporting Facility
EDT Latitude Longitude Course Direction KTS MPH feet Rate Location/Type
03:33PM 40.9000 -74.0333 306° West 187 215 2,100  Level New York TRACON
03:34PM 40.9333 -74.0833 311° West 209 241 4,500 2,160 Climbing New York TRACON
03:35PM 40.9333 -74.1667 270° West 229 264 6,500 1,800 Climbing New York TRACON
03:37PM 40.9831 -74.3278 292° West 273 314 9,600 1,800 Climbing New York Center
03:38PM 41.0556 -74.3372 354° North 252 290 11,600 2,220 Climbing New York Center
03:39PM 41.0907 -74.6065 306° West  Level FlightAware Approximate
03:39PM 41.1269 -74.3217 North 242 278 14,000  Level New York Center
03:40PM 41.1625 -74.3814 308° West 220 253 15,200 960 Climbing New York Center
03:41PM 41.1597 -74.4778 268° West 230 265 16,000 360 Climbing New York Center
03:42PM 41.1478 -74.5928 262° West 305 351 16,000  Level New York Center
03:43PM 41.1439 -74.7083 267° West 318 366 16,000 300 Level New York Center
03:44PM 41.1886 -74.8044 302° West 323 372 16,600 1,080 Climbing New York Center
03:45PM 41.2306 -74.9119 297° West 328 377 18,200 1,680 Climbing New York Center
03:46PM 41.2731 -75.0083 300° West 317 365 20,000 1,980 Climbing New York Center
03:47PM 41.3133 -75.1019 300° West 304 350 22,100 1,920 Climbing New York Center
03:48PM 41.3478 -75.1872 298° West 288 331 24,000 1,680 Climbing New York Center
03:49PM 41.3881 -75.2756 301° West 283 326 25,600 1,440 Climbing New York Center
03:50PM 41.4261 -75.3694 298° West 283 326 27,000 1,200 Climbing New York Center
03:51PM 41.4661 -75.4636 300° West 289 333 28,000 480 Climbing New York Center
03:52PM 41.5033 -75.5797 293° West 312 359 28,000  Level New York Center
03:53PM 41.5378 -75.7042 290° West 341 392 28,000 360 Level New York Center
03:54PM 41.5758 -75.8344 291° West 366 421 28,800 1,260 Climbing New York Center
03:55PM 41.6122 -75.9592 291° West 373 429 30,500 1,500 Climbing New York Center
03:56PM 41.6444 -76.0756 290° West 360 414 31,800 1,200 Climbing New York Center
03:57PM 41.6769 -76.1892 291° West 347 399 33,000 1,200 Climbing New York Center
03:58PM 41.7092 -76.3031 291° West 334 384 34,300 1,260 Climbing New York Center
03:59PM 41.7372 -76.4108 289° West 323 372 35,600 1,320 Climbing New York Center
04:00PM 41.7661 -76.5081 292° West 304 350 37,000 1,140 Climbing New York Center
04:01PM 41.7928 -76.6022 291° West 287 330 37,900 180 Climbing New York Center
04:05PM 41.9022 -77.0036 290° West 309 356 38,000  Climbing Cleveland Center
04:06PM 41.9350 -77.1217 291° West 329 379 38,000  Level Cleveland Center
04:07PM 41.9656 -77.2375 290° West 334 384 38,000  Level Cleveland Center
04:08PM 41.9983 -77.3614 290° West 346 398 38,000  Level Cleveland Center
04:09PM 42.0306 -77.4800 290° West 357 411 38,000  Level Cleveland Center
04:10PM 42.0631 -77.6017 290° West 362 417 38,000  Level Cleveland Center
04:11PM 42.0956 -77.7261 289° West 362 417 38,000  Level Cleveland Center
04:12PM 42.1275 -77.8478 290° West 357 411 38,000  Level Cleveland Center
04:13PM 42.1594 -77.9669 290° West 352 405 38,000  Level Cleveland Center
04:14PM 42.1914 -78.0889 290° West 352 405 38,000  Level Cleveland Center
04:15PM 42.2233 -78.2139 289° West 352 405 38,000  Level Cleveland Center
04:16PM 42.2550 -78.3361 289° West 352 405 38,000  Level Cleveland Center
04:18PM 42.3178 -78.5783 289° West 342 394 38,000  Level Cleveland Center
04:19PM 42.3489 -78.6981 289° West 342 394 38,000  Level Cleveland Center
04:20PM 42.3800 -78.8208 289° West 342 394 38,000  Level Cleveland Center
04:21PM 42.4114 -78.9578 287° West 342 394 38,000  Level Cleveland Center
04:22PM 42.4419 -79.0778 289° West 342 394 38,000  Level Cleveland Center
04:23PM 42.4728 -79.1925 290° West 350 403 38,000  Level Cleveland Center
04:24PM 42.4950 -79.3189 283° West 350 403 38,000  Level Cleveland Center
04:25PM 42.5025 -79.4483 275° West 350 403 38,000  Level Cleveland Center
04:26PM 42.5081 -79.5806 273° West 350 403 38,000  Level Cleveland Center
04:27PM 42.5133 -79.7297 273° West 350 403 38,000  Level Cleveland Center
04:28PM 42.5225 -79.8422 276° West 350 403 38,000  Level Cleveland Center
04:29PM 42.5233 -79.9889 270° West 350 403 38,000  Level Cleveland Center
04:30PM 42.5303 -80.1211 274° West 350 403 38,000  Level Cleveland Center
04:31PM 42.5369 -80.2394 274° West 350 403 38,000  Level Cleveland Center
04:32PM 42.5414 -80.3747 273° West 355 409 38,000  Level Cleveland Center
04:33PM 42.5456 -80.5014 273° West 346 398 38,000  Level Cleveland Center
04:34PM 42.5497 -80.6367 272° West 352 405 38,000  Level Cleveland Center
04:35PM 42.5539 -80.7664 273° West 353 406 38,000  Level Cleveland Center
04:36PM 42.5619 -80.9044 275° West 353 406 38,000  Level Cleveland Center
04:37PM 42.5636 -81.0314 271° West 353 406 38,000  Level Cleveland Center
04:38PM 42.5711 -81.1697 274° West 353 406 38,000  Level Cleveland Center
04:39PM 42.5747 -81.3078 272° West 348 400 38,000  Level Cleveland Center
04:40PM 42.5800 -81.4403 273° West 348 400 38,000  Level Cleveland Center
04:41PM 42.6019 -81.5619 284° West 341 392 38,000  Level Cleveland Center
04:42PM 42.6236 -81.6864 283° West 341 392 38,000  Level Cleveland Center
04:43PM 42.6433 -81.8108 282° West 335 386 38,000  Level Cleveland Center
04:44PM 42.6669 -81.9358 284° West 335 386 38,000  Level Cleveland Center
04:45PM 42.6903 -82.0606 284° West 340 391 38,000  Level Cleveland Center
04:46PM 42.7094 -82.1881 282° West 340 391 38,000  Level Cleveland Center
04:47PM 42.7328 -82.3131 284° West 340 391 38,000  Level Cleveland Center
04:48PM 42.7517 -82.4381 282° West 335 386 38,000  Level Cleveland Center
04:50PM 42.7953 -82.6939 283° West 342 394 38,000  Level Cleveland Center
04:51PM 42.8158 -82.8164 283° West 342 394 38,000  Level Cleveland Center
04:52PM 42.8383 -82.9417 284° West 342 394 38,000  Level Cleveland Center
04:53PM 42.8586 -83.0700 282° West 342 394 38,000  Level Cleveland Center
04:54PM 42.8786 -83.1925 283° West 337 388 38,000  Level Cleveland Center
04:55PM 42.8989 -83.3153 283° West 337 388 38,000  Level Cleveland Center
04:56PM 42.9167 -83.4408 281° West 337 388 38,000  Level Cleveland Center
04:57PM 42.9386 -83.5611 284° West 337 388 38,000  Level Cleveland Center
04:58PM 42.9564 -83.6811 281° West 337 388 38,000  Level Cleveland Center
04:59PM 42.9717 -83.8067 279° West 337 388 38,000  Level Cleveland Center
05:00PM 42.9847 -83.9322 278° West 337 388 38,000  Level Cleveland Center
05:02PM 43.0086 -84.1542 278° West 331 381 38,000  Level Chicago Center
05:03PM 43.0208 -84.2792 278° West 334 384 38,000  Level Chicago Center
05:04PM 43.0331 -84.4039 278° West 334 384 38,000  Level Chicago Center
05:05PM 43.0447 -84.5292 277° West 334 384 38,000  Level Chicago Center
05:06PM 43.0561 -84.6525 277° West 331 381 38,000  Level Chicago Center
05:07PM 43.0706 -84.8022 278° West 332 382 38,000  Level Chicago Center
05:08PM 43.0814 -84.9247 277° West 326 375 38,000  Level Chicago Center
05:09PM 43.0931 -85.0469 277° West 326 375 38,000  Level Chicago Center
05:10PM 43.1047 -85.1697 277° West 327 376 38,000  Level Chicago Center
05:11PM 43.1150 -85.2903 277° West 321 369 38,000  Level Chicago Center
05:12PM 43.1278 -85.4367 277° West 323 372 38,000  Level Chicago Center
05:13PM 43.1383 -85.5561 277° West 321 369 38,000 -240 Level Chicago Center
05:14PM 43.1489 -85.6775 277° West 321 369 37,600 -600 Descending Chicago Center
05:15PM 43.1606 -85.8044 277° West 336 387 36,800 -780 Descending Chicago Center
05:16PM 43.1708 -85.9289 277° West 336 387 36,000 -840 Descending Chicago Center
05:17PM 43.1822 -86.0719 276° West 323 372 35,100 -840 Descending Chicago Center
05:18PM 43.1925 -86.1947 277° West 328 377 34,300 -780 Descending Chicago Center
05:19PM 43.1981 -86.3208 274° West 333 383 33,500 -780 Descending Chicago Center
05:20PM 43.1928 -86.4511 267° West 344 396 32,700 -780 Descending Chicago Center
05:21PM 43.1872 -86.6086 267° West 345 397 32,000 -360 Descending Chicago Center
05:22PM 43.1828 -86.7369 267° West 340 391 32,000  Level Chicago Center
05:23PM 43.1786 -86.8650 267° West 338 389 32,000  Level Chicago Center
05:24PM 43.1736 -86.9936 267° West 337 388 32,000  Level Chicago Center
05:26PM 43.1686 -87.1208 267° West 338 389 32,000  Level Chicago Center
05:27PM 43.1631 -87.2472 267° West 334 384 32,000 -180 Level Chicago Center
05:28PM 43.1578 -87.3833 267° West 329 379 31,700 -780 Descending Chicago Center
05:29PM 43.1514 -87.5361 267° West 340 391 30,500 -1,080 Descending Chicago Center
05:30PM 43.1458 -87.6672 267° West 344 396 29,500 -1,020 Descending Chicago Center
05:31PM 43.1397 -87.7972 266° West 341 392 28,500 -1,380 Descending Chicago Center
05:32PM 43.1333 -87.9264 266° West 340 391 26,700 -1,740 Descending Chicago Center
05:33PM 43.1278 -88.0544 267° West 337 388 25,000 -840 Descending Chicago Center
05:34PM 43.1200 -88.1983 266° West 325 374 25,000  Level Chicago Center
05:35PM 43.1161 -88.3208 268° West 320 368 25,000 -120 Level Chicago Center
05:36PM 43.1206 -88.4428 273° West 319 367 24,800 -480 Descending Chicago Center
05:37PM 43.1233 -88.5714 272° West 332 382 24,000 -1,500 Descending Chicago Center
05:38PM 43.1258 -88.6983 272° West 332 382 21,800 -2,700 Descending Chicago Center
05:39PM 43.1294 -88.8181 272° West 315 362 18,500 -3,000 Descending Chicago Center
05:40PM 43.1308 -88.9306 271° West 297 342 15,700 -2,760 Descending Chicago Center